createdAt,value
2019-02-14T00:04:29.075Z,3.5
2019-02-14T00:09:31.602Z,3.5
2019-02-14T00:14:34.117Z,3.6
2019-02-14T00:19:36.446Z,3.5
2019-02-14T00:24:38.953Z,3.5
2019-02-14T00:29:41.354Z,3.5
2019-02-14T00:34:43.816Z,3.5
2019-02-14T00:39:46.325Z,3.5
2019-02-14T00:44:48.757Z,3.4
2019-02-14T00:49:51.218Z,3.2
2019-02-14T00:54:53.640Z,3
2019-02-14T00:59:56.128Z,2.8
2019-02-14T01:04:58.551Z,2.7
2019-02-14T01:10:01.138Z,2.7
2019-02-14T01:15:03.476Z,2.7
2019-02-14T01:20:05.999Z,2.7
2019-02-14T01:25:08.402Z,2.7
2019-02-14T01:30:10.853Z,2.8
2019-02-14T01:35:13.320Z,2.8
2019-02-14T01:40:15.760Z,2.8
2019-02-14T01:45:18.217Z,2.9
2019-02-14T01:50:20.681Z,2.8
2019-02-14T01:55:23.133Z,2.8
2019-02-14T02:00:25.585Z,2.8
2019-02-14T02:05:28.039Z,2.8
2019-02-14T02:10:30.503Z,2.8
2019-02-14T02:15:32.959Z,2.8
2019-02-14T02:20:35.513Z,2.8
2019-02-14T02:25:37.869Z,2.8
2019-02-14T02:30:40.329Z,2.8
2019-02-14T02:35:42.837Z,2.8
2019-02-14T02:40:45.251Z,2.7
2019-02-14T02:45:47.696Z,2.6
2019-02-14T02:50:50.280Z,2.5
2019-02-14T02:55:52.636Z,2.3
2019-02-14T03:00:55.100Z,2.2
2019-02-14T03:05:57.550Z,2.1
2019-02-14T03:11:00.060Z,2
2019-02-14T03:16:02.540Z,1.9
2019-02-14T03:21:04.961Z,1.9
2019-02-14T03:26:07.412Z,1.9
2019-02-14T03:31:09.880Z,1.9
2019-02-14T03:36:18.760Z,1.8
2019-02-14T03:41:14.884Z,1.8
2019-02-14T03:46:17.482Z,1.7
2019-02-14T03:51:19.732Z,1.6
2019-02-14T03:56:22.224Z,1.5
2019-02-14T04:01:24.678Z,1.4
2019-02-14T04:06:27.787Z,1.4
2019-02-14T04:11:29.652Z,1.3
2019-02-14T04:16:32.051Z,1.3
2019-02-14T04:21:34.541Z,1.2
2019-02-14T04:26:37.008Z,1.3
2019-02-14T04:31:39.471Z,1.3
2019-02-14T04:36:41.941Z,1.2
2019-02-14T04:41:44.460Z,1.3
2019-02-14T04:46:46.863Z,1.2
2019-02-14T04:51:49.318Z,1.1
2019-02-14T04:56:51.791Z,1.2
2019-02-14T05:01:54.287Z,1.2
2019-02-14T05:06:56.715Z,1.2
2019-02-14T05:11:59.235Z,1.1
2019-02-14T05:17:01.640Z,1.1
2019-02-14T05:22:04.142Z,1.1
2019-02-14T05:27:06.646Z,1.1
2019-02-14T05:32:09.051Z,1.1
2019-02-14T05:37:11.560Z,1.1
2019-02-14T05:42:14.018Z,1
2019-02-14T05:47:16.439Z,1.1
2019-02-14T05:52:18.920Z,1.2
2019-02-14T05:57:21.435Z,1.2
2019-02-14T06:02:23.855Z,1.3
2019-02-14T06:07:26.326Z,1.4
2019-02-14T06:12:28.780Z,1.6
2019-02-14T06:17:31.300Z,1.6
2019-02-14T06:22:33.792Z,1.7
2019-02-14T06:27:36.154Z,1.7
2019-02-14T06:32:38.619Z,1.8
2019-02-14T06:37:41.087Z,1.8
2019-02-14T06:42:43.539Z,1.8
2019-02-14T06:47:46.024Z,1.7
2019-02-14T06:52:48.572Z,1.8
2019-02-14T06:57:50.946Z,1.8
2019-02-14T07:02:53.417Z,1.8
2019-02-14T07:07:55.900Z,1.8
2019-02-14T07:12:58.343Z,1.9
2019-02-14T07:18:00.838Z,2
2019-02-14T07:23:03.253Z,2.2
2019-02-14T07:28:05.745Z,2.2
2019-02-14T07:33:08.190Z,2.3
2019-02-14T07:38:10.659Z,2.4
2019-02-14T07:43:13.110Z,2.6
2019-02-14T07:48:15.586Z,2.6
2019-02-14T07:53:18.036Z,2.8
2019-02-14T07:58:20.492Z,2.9
2019-02-14T08:03:22.955Z,3.1
2019-02-14T08:08:25.401Z,3.4
2019-02-14T08:13:27.928Z,3.7
2019-02-14T08:18:30.303Z,4.1
2019-02-14T08:23:32.781Z,4.6
2019-02-14T08:28:35.242Z,5
2019-02-14T08:33:37.750Z,5.3
2019-02-14T08:38:40.128Z,5.5
2019-02-14T08:43:42.595Z,6.4
2019-02-14T08:48:45.068Z,8.1
2019-02-14T08:53:47.553Z,9.4
2019-02-14T08:58:50.278Z,10.4
2019-02-14T09:03:52.420Z,10.9
2019-02-14T09:08:54.887Z,10.9
2019-02-14T09:13:57.391Z,11.1
2019-02-14T09:18:59.820Z,11.7
2019-02-14T09:24:02.298Z,13.3
2019-02-14T09:29:04.760Z,15.3
2019-02-14T09:34:07.218Z,17.2
2019-02-14T09:39:09.663Z,19.2
2019-02-14T09:44:12.149Z,21.7
2019-02-14T09:49:14.611Z,22.3
2019-02-14T09:54:17.026Z,23.7
2019-02-14T09:59:19.474Z,24.4
2019-02-14T10:04:21.921Z,23.5
2019-02-14T10:09:24.385Z,23.2
2019-02-14T10:14:26.830Z,24.7
2019-02-14T10:19:29.289Z,26.3
2019-02-14T10:24:31.747Z,26.4
2019-02-14T10:29:34.208Z,26.9
2019-02-14T10:34:36.681Z,25.4
2019-02-14T10:39:39.158Z,24.3
2019-02-14T10:44:41.651Z,24.1
2019-02-14T10:49:44.047Z,25
2019-02-14T10:54:46.507Z,26.5
2019-02-14T10:59:48.965Z,27.8
2019-02-14T11:04:51.437Z,28.4
2019-02-14T11:09:53.895Z,28.8
2019-02-14T11:14:56.347Z,28.8
2019-02-14T11:19:58.839Z,28.9
2019-02-14T11:25:01.364Z,28.5
2019-02-14T11:30:03.742Z,26.7
2019-02-14T11:35:06.239Z,26
2019-02-14T11:40:08.636Z,27
2019-02-14T11:45:11.114Z,28.9
2019-02-14T11:50:13.564Z,30.4
2019-02-14T11:55:16.010Z,30.8
2019-02-14T12:00:18.520Z,30.2
2019-02-14T12:05:20.938Z,29.7
2019-02-14T12:10:23.422Z,28.9
2019-02-14T12:15:25.950Z,28.1
2019-02-14T12:20:28.348Z,27.5
2019-02-14T12:25:30.772Z,27.5
2019-02-14T12:30:33.226Z,27.4
2019-02-14T12:35:35.732Z,27.1
2019-02-14T12:40:38.270Z,27.4
2019-02-14T12:45:40.616Z,27.8
2019-02-14T12:50:43.057Z,27.8
2019-02-14T12:55:47.537Z,27.7
2019-02-14T13:00:48.009Z,26.7
2019-02-14T13:05:50.533Z,25.3
2019-02-14T13:10:52.895Z,24.5
2019-02-14T13:15:55.364Z,24.2
2019-02-14T13:20:57.873Z,23.9
2019-02-14T13:26:00.286Z,23.4
2019-02-14T13:31:02.807Z,22.7
2019-02-14T13:36:05.199Z,21.9
2019-02-14T13:41:07.635Z,20.8
2019-02-14T13:46:10.127Z,19.6
2019-02-14T13:51:12.576Z,18.3
2019-02-14T13:56:15.070Z,16.8
2019-02-14T14:01:17.549Z,15.5
2019-02-14T14:06:19.938Z,14.7
2019-02-14T14:11:22.400Z,14
2019-02-14T14:16:24.873Z,13.4
2019-02-14T14:21:27.322Z,13
2019-02-14T14:26:29.767Z,12.8
2019-02-14T14:31:32.232Z,12.6
2019-02-14T14:36:34.725Z,12.5
2019-02-14T14:41:37.178Z,12.3
2019-02-14T14:46:39.631Z,12.2
2019-02-14T14:51:42.059Z,12.2
2019-02-14T14:56:44.598Z,12.1
2019-02-14T15:01:47.059Z,12.1
2019-02-14T15:06:49.446Z,12
2019-02-14T15:11:51.888Z,11.8
2019-02-14T15:16:54.414Z,11.7
2019-02-14T15:21:56.796Z,11.6
2019-02-14T15:26:59.257Z,11.4
2019-02-14T15:32:01.794Z,11.3
2019-02-14T15:37:04.188Z,11.1
2019-02-14T15:42:06.626Z,10.9
2019-02-14T15:47:09.094Z,10.7
2019-02-14T15:52:11.613Z,10.4
2019-02-14T15:57:15.748Z,9.9
2019-02-14T16:02:16.599Z,9.5
2019-02-14T16:07:18.919Z,9.1
2019-02-14T16:12:21.948Z,8.6
2019-02-14T16:17:23.980Z,8.1
2019-02-14T16:22:29.926Z,7.6
2019-02-14T16:27:28.750Z,7.1
2019-02-14T16:32:31.255Z,6.6
2019-02-14T16:37:33.706Z,6.3
2019-02-14T16:42:36.172Z,6.1
2019-02-14T16:47:38.628Z,5.8
2019-02-14T16:52:41.058Z,5.7
2019-02-14T16:57:43.584Z,5.6
2019-02-14T17:02:46.013Z,5.4
2019-02-14T17:07:48.399Z,5.4
2019-02-14T17:12:50.870Z,5.2
2019-02-14T17:17:53.336Z,5
2019-02-14T17:22:55.810Z,4.8
2019-02-14T17:27:58.253Z,4.7
2019-02-14T17:33:00.763Z,4.5
2019-02-14T17:38:03.194Z,4.3
2019-02-14T17:43:05.632Z,4.1
2019-02-14T17:48:08.076Z,4
2019-02-14T17:53:10.535Z,3.8
2019-02-14T17:58:13.032Z,3.7
2019-02-14T18:03:15.600Z,3.5
2019-02-14T18:08:17.935Z,3.4
2019-02-14T18:13:20.358Z,3.3
2019-02-14T18:18:22.819Z,3.2
2019-02-14T18:23:25.274Z,3.1
2019-02-14T18:28:27.727Z,3
2019-02-14T18:33:30.215Z,2.9
2019-02-14T18:38:32.669Z,2.7
2019-02-14T18:43:35.120Z,2.6
2019-02-14T18:48:37.586Z,2.4
2019-02-14T18:53:40.038Z,2.3
2019-02-14T18:58:42.526Z,2.3
2019-02-14T19:03:44.975Z,2.2
2019-02-14T19:08:47.446Z,2.1
2019-02-14T19:13:49.883Z,2
2019-02-14T19:18:52.370Z,2
2019-02-14T19:23:54.783Z,1.9
2019-02-14T19:28:57.253Z,1.8
2019-02-14T19:33:59.728Z,1.7
2019-02-14T19:39:02.331Z,1.7
2019-02-14T19:44:04.677Z,1.6
2019-02-14T19:49:07.160Z,1.5
2019-02-14T19:54:09.639Z,1.5
2019-02-14T19:59:12.068Z,1.3
2019-02-14T20:04:14.605Z,1.3
2019-02-14T20:09:16.989Z,1.1
2019-02-14T20:14:19.483Z,1
2019-02-14T20:19:21.977Z,1
2019-02-14T20:24:24.405Z,0.9
2019-02-14T20:29:26.844Z,0.8
2019-02-14T20:34:29.300Z,0.8
2019-02-14T20:39:31.763Z,0.8
2019-02-14T20:44:34.230Z,0.6
2019-02-14T20:49:36.737Z,0.6
2019-02-14T20:54:39.496Z,0.5
2019-02-14T20:59:41.625Z,0.5
2019-02-14T21:04:44.079Z,0.4
2019-02-14T21:09:46.593Z,0
2019-02-14T21:14:49.090Z,0.4
2019-02-14T21:19:51.450Z,0.3
2019-02-14T21:24:53.951Z,0.3
2019-02-14T21:29:56.491Z,0.2
2019-02-14T21:34:58.854Z,0.2
2019-02-14T21:40:06.485Z,0.1
2019-02-14T21:45:03.821Z,0
2019-02-14T21:50:06.279Z,0
2019-02-14T21:55:08.768Z,655.26
2019-02-14T22:00:11.224Z,655.16
2019-02-14T22:05:13.708Z,655.06
2019-02-14T22:10:16.095Z,655.06
2019-02-14T22:15:18.550Z,655.06
2019-02-14T22:20:21.039Z,654.96
2019-02-14T22:25:23.472Z,654.96
2019-02-14T22:30:25.934Z,654.96
2019-02-14T22:35:28.414Z,654.86
2019-02-14T22:40:30.847Z,654.86
2019-02-14T22:45:33.334Z,654.86
2019-02-14T22:50:35.771Z,654.86
2019-02-14T22:55:38.226Z,654.86
2019-02-14T23:00:40.708Z,654.76
2019-02-14T23:05:43.168Z,654.76
2019-02-14T23:10:45.604Z,654.76
2019-02-14T23:15:48.094Z,654.66
2019-02-14T23:20:50.541Z,654.66
2019-02-14T23:25:53.084Z,654.66
2019-02-14T23:30:55.454Z,654.66
2019-02-14T23:35:58.045Z,654.66
2019-02-14T23:41:00.369Z,654.56
2019-02-14T23:46:02.880Z,654.56
2019-02-14T23:51:05.367Z,654.56
2019-02-14T23:56:07.748Z,654.56
